Time;durP1;ratioP1;P1;durP2;ratioP2;P2;SDS_P1;SDS_P2;PMS_P1;PMS_P2;Temp;Humidity;BMP_temperature;BMP_pressure;BME280_temperature;BME280_humidity;BME280_pressure;Samples;Min_cycle;Max_cycle;Signal;HPM_P1;HPM_P2
2023/01/28 00:01:12;;;;;;;;;;;;;;;-1.58;63.00;92764.16;2055394;70;20117;-74
2023/01/28 00:03:38;;;;;;;;;;;;;;;-1.78;63.49;92761.31;2054364;69;20066;-74
2023/01/28 00:06:08;;;;;;;;;;;;;;;-1.79;64.13;92771.56;2054006;70;20387;-73
2023/01/28 00:08:34;;;;;;;;;;;;;;;-1.80;64.70;92781.88;2051361;70;20055;-73
2023/01/28 00:11:00;;;;;;;;;;;;;;;-1.88;64.49;92777.50;2051185;70;20479;-74
2023/01/28 00:13:26;;;;;;;;;;;;;;;-1.78;63.54;92775.84;2054444;70;20050;-73
2023/01/28 00:15:56;;;;;;;;;;;;;;;-1.73;63.38;92777.75;2054706;70;20138;-75
2023/01/28 00:18:22;;;;;;;;;;;;;;;-1.74;63.44;92762.47;2048514;70;20051;-76
2023/01/28 00:20:57;;;;;;;;;;;;;;;-1.76;63.50;92778.06;2051410;70;20511;-75
2023/01/28 00:23:23;;;;;;;;;;;;;;;-2.02;64.88;92781.53;2052014;70;20062;-74
2023/01/28 00:25:48;;;;;;;;;;;;;;;-2.33;65.35;92775.50;2054398;69;20391;-75
2023/01/28 00:28:14;;;;;;;;;;;;;;;-2.19;65.42;92779.06;2054361;70;20474;-76
2023/01/28 00:30:39;;;;;;;;;;;;;;;-2.08;65.89;92778.88;2050576;70;20054;-75
2023/01/28 00:33:05;;;;;;;;;;;;;;;-1.93;64.41;92784.59;2051297;70;20038;-74
2023/01/28 00:35:30;;;;;;;;;;;;;;;-1.91;65.47;92789.63;2054321;70;20810;-74
2023/01/28 00:37:55;;;;;;;;;;;;;;;-2.19;65.61;92781.81;2054507;70;20062;-74
2023/01/28 00:40:21;;;;;;;;;;;;;;;-2.00;64.89;92779.00;2054352;70;20203;-74
2023/01/28 00:42:46;;;;;;;;;;;;;;;-2.06;66.03;92779.84;2054557;70;20479;-74
2023/01/28 00:45:12;;;;;;;;;;;;;;;-2.21;66.66;92776.81;2053025;70;20065;-76
2023/01/28 00:47:38;;;;;;;;;;;;;;;-2.10;65.82;92784.16;2047867;70;20400;-75
2023/01/28 00:50:04;;;;;;;;;;;;;;;-2.14;66.23;92780.97;2048687;70;20046;-75
2023/01/28 00:52:30;;;;;;;;;;;;;;;-2.10;66.59;92790.44;2051005;70;20049;-74
2023/01/28 00:54:56;;;;;;;;;;;;;;;-2.17;66.96;92790.28;2051373;70;20043;-74
2023/01/28 00:57:21;;;;;;;;;;;;;;;-2.24;68.25;92796.44;2050682;70;20498;-75
2023/01/28 00:59:47;;;;;;;;;;;;;;;-2.24;68.53;92786.16;2050460;70;20042;-74
2023/01/28 01:02:12;;;;;;;;;;;;;;;-2.02;67.80;92771.22;2051241;70;20050;-74
2023/01/28 01:04:38;;;;;;;;;;;;;;;-1.98;67.83;92776.44;2051239;70;20050;-73
2023/01/28 01:07:04;;;;;;;;;;;;;;;-2.12;68.94;92783.94;2051027;70;20050;-73
2023/01/28 01:09:30;;;;;;;;;;;;;;;-2.07;68.47;92789.34;2054505;70;20410;-73
2023/01/28 01:11:55;;;;;;;;;;;;;;;-2.03;68.18;92782.78;2050826;70;20048;-74
2023/01/28 01:14:21;;;;;;;;;;;;;;;-2.23;68.51;92775.88;2054157;70;20053;-75
2023/01/28 01:16:46;;;;;;;;;;;;;;;-2.20;69.50;92789.34;2048418;70;20073;-74
2023/01/28 01:19:12;;;;;;;;;;;;;;;-2.23;69.88;92795.91;2050861;70;20466;-73
2023/01/28 01:21:37;;;;;;;;;;;;;;;-2.20;70.16;92789.34;2051268;70;20073;-74
2023/01/28 01:24:03;;;;;;;;;;;;;;;-2.40;71.35;92790.66;2051256;70;20054;-76
2023/01/28 01:26:28;;;;;;;;;;;;;;;-2.50;71.33;92791.56;2054157;70;20046;-75
2023/01/28 01:28:56;;;;;;;;;;;;;;;-2.47;71.78;92780.25;2054152;70;20050;-75
2023/01/28 01:31:22;;;;;;;;;;;;;;;-2.40;71.85;92781.63;2050658;70;20061;-74
2023/01/28 01:33:48;;;;;;;;;;;;;;;-2.23;71.31;92773.09;2051051;70;20050;-75
2023/01/28 01:36:15;;;;;;;;;;;;;;;-2.01;70.74;92775.50;2047763;70;20047;-74
2023/01/28 01:38:41;;;;;;;;;;;;;;;-2.11;70.71;92769.63;2051166;70;20507;-75
2023/01/28 01:41:07;;;;;;;;;;;;;;;-1.97;69.81;92772.41;2050600;70;20085;-73
2023/01/28 01:43:52;;;;;;;;;;;;;;;-1.98;69.40;92782.69;2051169;70;20050;-76
2023/01/28 01:46:21;;;;;;;;;;;;;;;-2.16;70.31;92781.47;2048399;70;20066;-73
2023/01/28 01:48:47;;;;;;;;;;;;;;;-2.25;70.66;92784.66;2050904;70;20070;-73
2023/01/28 01:51:15;;;;;;;;;;;;;;;-2.06;70.04;92781.84;2051117;70;20049;-73
2023/01/28 01:53:47;;;;;;;;;;;;;;;-1.91;70.01;92789.63;2045561;70;20076;-75
2023/01/28 01:56:15;;;;;;;;;;;;;;;-1.95;70.64;92803.72;2051174;70;20062;-74
2023/01/28 01:58:42;;;;;;;;;;;;;;;-1.87;69.25;92801.84;2050607;70;20078;-74
2023/01/28 02:01:12;;;;;;;;;;;;;;;-1.88;69.45;92803.13;2054269;70;20078;-75
2023/01/28 02:03:50;;;;;;;;;;;;;;;-1.83;69.42;92799.50;2051268;70;20050;-76
2023/01/28 02:06:16;;;;;;;;;;;;;;;-1.77;69.49;92795.91;2052965;70;20081;-73
2023/01/28 02:08:44;;;;;;;;;;;;;;;-1.75;69.46;92801.63;2052599;70;20050;-75
2023/01/28 02:11:17;;;;;;;;;;;;;;;-1.73;68.39;92801.84;2052128;70;20153;-74
2023/01/28 02:13:49;;;;;;;;;;;;;;;-1.92;69.05;92797.16;2051017;70;20146;-75
2023/01/28 02:16:15;;;;;;;;;;;;;;;-2.26;71.47;92805.22;2048056;70;20059;-75
2023/01/28 02:18:40;;;;;;;;;;;;;;;-2.18;70.56;92806.09;2051250;70;20058;-75
2023/01/28 02:21:09;;;;;;;;;;;;;;;-2.10;70.47;92800.72;2049183;70;20070;-75
2023/01/28 02:23:44;;;;;;;;;;;;;;;-1.87;69.82;92796.31;2050883;70;20051;-74
2023/01/28 02:26:24;;;;;;;;;;;;;;;-1.88;69.75;92803.13;2054821;70;20042;-75
2023/01/28 02:29:04;;;;;;;;;;;;;;;-1.95;70.21;92797.47;2050933;70;20053;-76
2023/01/28 02:31:33;;;;;;;;;;;;;;;-1.91;70.14;92798.63;2051309;70;20046;-75
2023/01/28 02:34:05;;;;;;;;;;;;;;;-1.89;69.96;92801.59;2051066;70;20470;-76
2023/01/28 02:36:33;;;;;;;;;;;;;;;-1.76;69.13;92808.44;2051553;70;20070;-75
2023/01/28 02:39:02;;;;;;;;;;;;;;;-1.77;69.72;92804.94;2049690;70;20051;-75
2023/01/28 02:41:39;;;;;;;;;;;;;;;-1.76;69.67;92800.16;2049973;70;20144;-74
2023/01/28 02:44:05;;;;;;;;;;;;;;;-1.89;70.21;92798.84;2053688;70;20042;-75
2023/01/28 02:49:22;;;;;;;;;;;;;;;-1.73;69.42;92799.09;2054956;70;20065;-75
2023/01/28 02:51:53;;;;;;;;;;;;;;;-1.69;69.16;92803.03;2050941;70;20454;-77
2023/01/28 02:54:24;;;;;;;;;;;;;;;-1.69;69.13;92803.03;2051341;70;20049;-76
2023/01/28 02:56:56;;;;;;;;;;;;;;;-1.68;69.57;92796.22;2054261;70;20080;-74
2023/01/28 02:59:40;;;;;;;;;;;;;;;-1.67;69.93;92799.72;2052127;70;20133;-74
2023/01/28 03:02:15;;;;;;;;;;;;;;;-1.64;69.25;92795.91;2048015;70;20058;-74
2023/01/28 03:04:59;;;;;;;;;;;;;;;-1.60;69.29;92796.34;2047683;70;20157;-75
2023/01/28 03:07:26;;;;;;;;;;;;;;;-1.66;68.96;92801.97;2051610;70;20483;-77
2023/01/28 03:09:57;;;;;;;;;;;;;;;-1.82;69.95;92806.50;2050747;70;20073;-76
2023/01/28 03:38:21;;;;;;;;;;;;;;;-1.83;70.50;92818.09;2051195;70;20054;-75
2023/01/28 03:41:04;;;;;;;;;;;;;;;-1.75;70.05;92818.19;2051075;70;20043;-76
2023/01/28 03:43:30;;;;;;;;;;;;;;;-1.67;69.82;92824.56;2050800;70;20042;-75
2023/01/28 03:45:56;;;;;;;;;;;;;;;-1.83;70.29;92826.38;2051455;70;20145;-75
2023/01/28 03:48:23;;;;;;;;;;;;;;;-2.12;71.56;92839.09;2051443;70;20425;-74
2023/01/28 03:50:49;;;;;;;;;;;;;;;-2.25;72.40;92845.31;2051194;70;20076;-75
2023/01/28 03:53:39;;;;;;;;;;;;;;;-2.23;72.25;92834.53;2051232;70;20042;-73
2023/01/28 03:56:05;;;;;;;;;;;;;;;-2.06;71.79;92843.28;2051683;70;20050;-75
2023/01/28 03:58:52;;;;;;;;;;;;;;;-1.96;70.66;92840.88;2050815;70;20492;-76
2023/01/28 04:01:18;;;;;;;;;;;;;;;-2.20;71.47;92838.22;2054777;70;20057;-75
2023/01/28 04:03:44;;;;;;;;;;;;;;;-2.12;71.96;92841.88;2051255;70;20054;-75
2023/01/28 04:06:13;;;;;;;;;;;;;;;-2.09;71.48;92838.81;2051485;70;20429;-74
2023/01/28 04:08:58;;;;;;;;;;;;;;;-2.04;71.07;92840.00;2051522;70;20134;-75
2023/01/28 04:11:42;;;;;;;;;;;;;;;-2.01;70.88;92840.97;2053766;69;20073;-73
2023/01/28 04:14:08;;;;;;;;;;;;;;;-1.97;70.89;92833.09;2051107;70;20042;-77
2023/01/28 04:16:48;;;;;;;;;;;;;;;-1.88;70.62;92832.69;2048627;70;20475;-76
2023/01/28 04:19:14;;;;;;;;;;;;;;;-1.84;70.08;92844.19;2047561;70;20039;-75
2023/01/28 04:21:41;;;;;;;;;;;;;;;-1.83;69.80;92840.16;2044860;70;20105;-73
2023/01/28 04:24:07;;;;;;;;;;;;;;;-1.76;69.52;92839.53;2044746;70;20063;-74
2023/01/28 04:26:33;;;;;;;;;;;;;;;-1.86;69.77;92822.63;2046972;70;20051;-73
2023/01/28 04:29:00;;;;;;;;;;;;;;;-1.73;69.16;92834.97;2049293;70;20051;-75
2023/01/28 04:31:25;;;;;;;;;;;;;;;-1.80;69.37;92837.06;2048277;70;20049;-74
2023/01/28 04:33:58;;;;;;;;;;;;;;;-1.79;69.96;92846.09;2050686;70;20073;-73
2023/01/28 04:36:35;;;;;;;;;;;;;;;-1.75;70.13;92841.00;2048469;70;20120;-75
2023/01/28 04:39:22;;;;;;;;;;;;;;;-1.73;69.17;92849.53;2050889;70;20506;-75
2023/01/28 04:42:13;;;;;;;;;;;;;;;-1.73;68.86;92851.53;2051284;70;20120;-75
2023/01/28 04:45:11;;;;;;;;;;;;;;;-1.72;68.89;92855.78;2046531;70;20052;-74
2023/01/28 04:47:47;;;;;;;;;;;;;;;-1.69;69.13;92858.25;2044798;70;20089;-77
2023/01/28 04:50:36;;;;;;;;;;;;;;;-1.74;69.71;92859.09;2047364;70;20047;-74
2023/01/28 04:53:16;;;;;;;;;;;;;;;-1.90;70.93;92858.06;2047607;70;20063;-74
2023/01/28 04:55:56;;;;;;;;;;;;;;;-1.74;70.34;92866.59;2054006;70;20493;-73
2023/01/28 04:58:22;;;;;;;;;;;;;;;-1.70;69.67;92858.75;2051307;70;20116;-74
2023/01/28 05:00:57;;;;;;;;;;;;;;;-1.75;70.20;92862.34;2051441;70;20058;-74
2023/01/28 05:03:23;;;;;;;;;;;;;;;-1.69;70.10;92866.53;2051684;70;20474;-74
2023/01/28 05:05:50;;;;;;;;;;;;;;;-1.75;70.39;92862.34;2051568;70;20050;-75
2023/01/28 05:08:36;;;;;;;;;;;;;;;-2.02;71.57;92875.31;2051419;70;20145;-77
2023/01/28 05:11:02;;;;;;;;;;;;;;;-1.93;70.81;92874.94;2054580;70;20054;-76
2023/01/28 05:13:27;;;;;;;;;;;;;;;-2.02;72.39;92869.81;2051347;70;20139;-77
2023/01/28 05:15:53;;;;;;;;;;;;;;;-1.84;71.34;92869.75;2051479;70;20049;-76
2023/01/28 05:18:19;;;;;;;;;;;;;;;-1.72;69.64;92872.34;2051247;70;20047;-77
2023/01/28 05:20:54;;;;;;;;;;;;;;;-1.74;70.49;92875.66;2051479;70;20042;-76
2023/01/28 05:23:19;;;;;;;;;;;;;;;-1.81;71.08;92877.00;2051540;70;20042;-76
2023/01/28 05:25:50;;;;;;;;;;;;;;;-1.74;70.74;92875.66;2051304;70;20401;-74
2023/01/28 05:28:15;;;;;;;;;;;;;;;-1.74;70.02;92881.16;2048584;70;20475;-73
2023/01/28 05:30:41;;;;;;;;;;;;;;;-1.70;70.58;92889.13;2051134;70;20474;-74
2023/01/28 05:33:06;;;;;;;;;;;;;;;-1.70;70.03;92878.81;2051436;70;20110;-76
2023/01/28 05:35:32;;;;;;;;;;;;;;;-1.74;69.88;92883.94;2051465;70;20042;-76
2023/01/28 05:37:57;;;;;;;;;;;;;;;-1.76;70.15;92891.97;2051405;70;20125;-77
2023/01/28 05:40:23;;;;;;;;;;;;;;;-1.88;70.44;92894.19;2054119;70;20082;-76
2023/01/28 05:42:49;;;;;;;;;;;;;;;-1.80;71.02;92895.03;2050894;70;20053;-77
2023/01/28 05:45:40;;;;;;;;;;;;;;;-1.75;69.93;92903.75;2051350;70;20112;-77
2023/01/28 05:48:17;;;;;;;;;;;;;;;-1.73;70.66;92892.94;2051282;70;20062;-77
2023/01/28 05:50:54;;;;;;;;;;;;;;;-1.80;71.14;92905.34;2051311;70;20050;-76
2023/01/28 05:53:29;;;;;;;;;;;;;;;-1.80;70.85;92903.31;2048247;70;20038;-76
2023/01/28 05:55:55;;;;;;;;;;;;;;;-1.88;70.47;92901.69;2051110;70;20046;-76
2023/01/28 05:58:21;;;;;;;;;;;;;;;-1.87;71.58;92906.69;2051253;70;20062;-77
2023/01/28 06:00:47;;;;;;;;;;;;;;;-1.89;71.03;92909.22;2051615;70;20100;-75
2023/01/28 06:03:15;;;;;;;;;;;;;;;-1.85;71.23;92909.66;2048338;70;20049;-75
2023/01/28 06:05:42;;;;;;;;;;;;;;;-1.94;71.77;92906.56;2048582;70;20488;-77
2023/01/28 06:08:07;;;;;;;;;;;;;;;-1.90;71.12;92907.75;2054510;70;20144;-76
2023/01/28 06:10:34;;;;;;;;;;;;;;;-1.84;71.06;92902.13;2051869;70;20050;-77
2023/01/28 06:13:00;;;;;;;;;;;;;;;-1.78;70.57;92907.59;2051230;70;20038;-76
2023/01/28 06:15:28;;;;;;;;;;;;;;;-1.80;70.67;92914.34;2055133;70;20070;-76
2023/01/28 06:18:12;;;;;;;;;;;;;;;-1.85;71.47;92914.44;2049774;70;20541;-76
2023/01/28 06:20:37;;;;;;;;;;;;;;;-2.04;72.14;92925.50;2051104;70;20053;-74
2023/01/28 06:23:04;;;;;;;;;;;;;;;-1.91;71.91;92924.84;2051251;70;20047;-77
2023/01/28 06:25:29;;;;;;;;;;;;;;;-1.75;71.20;92925.84;2051262;70;20414;-76
2023/01/28 06:27:59;;;;;;;;;;;;;;;-1.71;70.80;92940.06;2051112;70;20047;-74
2023/01/28 06:30:24;;;;;;;;;;;;;;;-1.68;70.92;92933.50;2053192;70;20082;-75
2023/01/28 06:32:53;;;;;;;;;;;;;;;-1.68;71.16;92939.78;2055104;70;20046;-75
2023/01/28 06:35:19;;;;;;;;;;;;;;;-1.63;70.56;92936.19;2055077;70;20145;-76
2023/01/28 06:37:45;;;;;;;;;;;;;;;-1.65;71.63;92941.50;2054227;70;20137;-76
2023/01/28 06:40:10;;;;;;;;;;;;;;;-1.67;70.89;92940.53;2055097;70;20046;-75
2023/01/28 06:42:36;;;;;;;;;;;;;;;-1.63;70.26;92936.19;2054940;70;20042;-77
2023/01/28 06:45:01;;;;;;;;;;;;;;;-1.65;70.90;92938.72;2055344;70;20050;-75
2023/01/28 06:47:27;;;;;;;;;;;;;;;-1.65;70.85;92933.22;2052861;70;20061;-75
2023/01/28 06:49:52;;;;;;;;;;;;;;;-1.70;71.13;92938.81;2054838;70;20049;-75
2023/01/28 06:52:17;;;;;;;;;;;;;;;-1.80;71.45;92943.97;2050815;70;20122;-75
2023/01/28 06:54:43;;;;;;;;;;;;;;;-1.69;71.21;92940.31;2051651;70;20063;-75
2023/01/28 06:57:08;;;;;;;;;;;;;;;-2.08;72.66;92934.09;2048204;70;20077;-75
2023/01/28 06:59:34;;;;;;;;;;;;;;;-1.75;71.89;92940.38;2053350;70;20134;-76
2023/01/28 07:01:59;;;;;;;;;;;;;;;-1.61;71.34;92947.44;2054987;70;20050;-76
2023/01/28 07:04:25;;;;;;;;;;;;;;;-1.64;70.88;92947.75;2054411;70;20050;-78
2023/01/28 07:06:50;;;;;;;;;;;;;;;-1.60;71.08;92956.47;2055118;70;20082;-76
2023/01/28 07:09:16;;;;;;;;;;;;;;;-1.63;71.14;92949.97;2054974;70;20081;-78
2023/01/28 07:11:41;;;;;;;;;;;;;;;-1.56;70.85;92954.13;2054743;70;20044;-76
2023/01/28 07:14:07;;;;;;;;;;;;;;;-1.48;70.83;92949.50;2054840;70;20077;-75
2023/01/28 07:16:32;;;;;;;;;;;;;;;-1.46;70.58;92960.78;2055026;70;20085;-75
2023/01/28 07:18:57;;;;;;;;;;;;;;;-1.41;70.25;92953.66;2053077;70;20462;-76
2023/01/28 07:21:23;;;;;;;;;;;;;;;-1.41;70.64;92959.94;2051663;70;20153;-75
2023/01/28 07:23:48;;;;;;;;;;;;;;;-1.48;70.91;92962.56;2053053;70;20117;-76
2023/01/28 07:26:18;;;;;;;;;;;;;;;-1.44;70.67;92963.75;2055201;70;20418;-75
2023/01/28 07:28:44;;;;;;;;;;;;;;;-1.35;70.37;92963.34;2054832;70;20137;-75
2023/01/28 07:31:10;;;;;;;;;;;;;;;-1.39;70.58;92970.44;2055094;70;20201;-77
2023/01/28 07:33:35;;;;;;;;;;;;;;;-1.47;71.08;92969.56;2054479;70;20054;-75
2023/01/28 07:36:00;;;;;;;;;;;;;;;-1.33;70.09;92971.84;2054839;70;20117;-76
2023/01/28 07:38:26;;;;;;;;;;;;;;;-1.19;70.23;92983.69;2054946;70;20082;-76
2023/01/28 07:40:51;;;;;;;;;;;;;;;-1.18;70.11;92982.41;2049358;70;20082;-77
2023/01/28 07:43:17;;;;;;;;;;;;;;;-1.13;70.32;92978.81;2052282;70;20113;-78
2023/01/28 07:45:42;;;;;;;;;;;;;;;-1.41;70.81;92984.03;2051659;70;20474;-78
2023/01/28 07:48:10;;;;;;;;;;;;;;;-1.40;71.15;92985.53;2055170;70;20058;-74
2023/01/28 07:50:36;;;;;;;;;;;;;;;-1.27;70.83;92993.13;2054825;70;20046;-76
2023/01/28 07:53:03;;;;;;;;;;;;;;;-1.32;71.18;92997.47;2052200;70;20077;-73
2023/01/28 07:55:28;;;;;;;;;;;;;;;-1.22;70.82;92993.03;2052451;70;20137;-75
2023/01/28 07:57:55;;;;;;;;;;;;;;;-1.26;70.63;93002.88;2055057;70;20166;-78
2023/01/28 08:00:21;;;;;;;;;;;;;;;-1.06;70.69;93003.03;2053861;70;20097;-75
2023/01/28 08:02:47;;;;;;;;;;;;;;;-0.94;70.27;93008.38;2054468;70;20050;-73
2023/01/28 08:05:16;;;;;;;;;;;;;;;-0.93;70.39;93007.09;2054305;70;20121;-73
2023/01/28 08:07:41;;;;;;;;;;;;;;;-0.95;70.40;93009.66;2054618;70;20086;-76
2023/01/28 08:10:07;;;;;;;;;;;;;;;-0.89;69.47;93005.53;2054572;70;20501;-78
2023/01/28 08:12:33;;;;;;;;;;;;;;;-0.94;69.81;93008.38;2054535;70;20198;-77
2023/01/28 08:14:58;;;;;;;;;;;;;;;-0.85;69.49;93010.75;2054905;70;20133;-77
2023/01/28 08:17:23;;;;;;;;;;;;;;;-0.82;69.31;93015.22;2055190;70;20045;-75
2023/01/28 08:19:49;;;;;;;;;;;;;;;-0.85;69.83;93016.28;2055288;70;20049;-77
2023/01/28 08:22:14;;;;;;;;;;;;;;;-0.84;69.25;93015.00;2053956;70;20660;-73
2023/01/28 08:24:40;;;;;;;;;;;;;;;-0.84;69.19;93015.00;2053677;70;20042;-75
2023/01/28 08:27:05;;;;;;;;;;;;;;;-0.87;69.39;93013.28;2054747;70;20042;-78
2023/01/28 08:29:31;;;;;;;;;;;;;;;-0.87;69.61;93011.28;2051708;70;20117;-75
2023/01/28 08:31:56;;;;;;;;;;;;;;;-0.80;69.00;93024.47;2054134;70;20140;-74
2023/01/28 08:34:22;;;;;;;;;;;;;;;-0.73;68.45;93027.84;2056444;70;20062;-78
2023/01/28 08:36:47;;;;;;;;;;;;;;;-0.75;69.00;93020.09;2055057;70;20066;-77
2023/01/28 08:39:13;;;;;;;;;;;;;;;-0.58;68.84;93028.84;2054172;70;20050;-77
2023/01/28 08:41:38;;;;;;;;;;;;;;;-0.49;68.54;93035.25;2047994;70;20405;-76
2023/01/28 08:44:04;;;;;;;;;;;;;;;-0.72;68.70;93012.78;2051391;70;20577;-73
2023/01/28 08:46:29;;;;;;;;;;;;;;;-0.64;68.62;93038.50;2051068;70;20113;-75
2023/01/28 08:48:55;;;;;;;;;;;;;;;-0.65;68.60;93029.47;2048393;70;20051;-79
2023/01/28 08:51:20;;;;;;;;;;;;;;;-0.65;68.32;93035.00;2048497;70;20050;-75
2023/01/28 08:53:45;;;;;;;;;;;;;;;-0.55;68.41;93035.31;2050960;70;20473;-74
2023/01/28 08:56:11;;;;;;;;;;;;;;;-0.59;68.24;93029.38;2050280;70;20042;-74
2023/01/28 08:58:36;;;;;;;;;;;;;;;-0.48;67.96;93031.94;2048282;70;20042;-73
2023/01/28 09:01:05;;;;;;;;;;;;;;;-0.53;68.40;93030.75;2048389;70;20172;-75
2023/01/28 09:03:31;;;;;;;;;;;;;;;-0.47;67.96;93040.97;2050975;70;20051;-77
2023/01/28 09:06:00;;;;;;;;;;;;;;;-0.37;67.50;93036.50;2054486;70;20085;-78
2023/01/28 09:08:26;;;;;;;;;;;;;;;-0.58;67.83;93041.94;2054957;70;20058;-78
2023/01/28 09:10:55;;;;;;;;;;;;;;;-0.53;67.39;93039.06;2054098;70;20053;-75
2023/01/28 09:13:21;;;;;;;;;;;;;;;-0.91;68.60;93048.78;2050981;70;20046;-73
2023/01/28 09:15:46;;;;;;;;;;;;;;;-0.96;69.24;93049.63;2050244;70;20045;-74
2023/01/28 09:18:12;;;;;;;;;;;;;;;-1.09;70.14;93047.56;2052378;70;20478;-75
2023/01/28 09:20:37;;;;;;;;;;;;;;;-0.74;69.96;93048.50;2051421;70;20058;-78
2023/01/28 09:23:03;;;;;;;;;;;;;;;-0.81;69.25;93058.16;2052747;70;20060;-75
2023/01/28 09:25:29;;;;;;;;;;;;;;;-0.87;70.26;93063.03;2049665;70;20432;-74
2023/01/28 09:27:54;;;;;;;;;;;;;;;-1.00;70.35;93063.00;2051179;70;20050;-74
2023/01/28 09:30:23;;;;;;;;;;;;;;;-0.53;69.23;93054.91;2051287;70;20507;-72
2023/01/28 09:32:49;;;;;;;;;;;;;;;-0.66;68.95;93057.66;2047808;70;20155;-74
2023/01/28 09:35:16;;;;;;;;;;;;;;;-0.58;69.36;93042.69;2050884;70;20083;-76
2023/01/28 09:37:42;;;;;;;;;;;;;;;-0.74;69.99;93071.34;2050702;70;20046;-77
2023/01/28 09:40:11;;;;;;;;;;;;;;;-0.56;69.03;93059.47;2051287;70;20073;-79
2023/01/28 09:43:00;;;;;;;;;;;;;;;-0.35;68.77;93067.91;2049872;70;20043;-74
2023/01/28 09:45:36;;;;;;;;;;;;;;;-0.75;68.92;93083.69;2049185;70;20046;-78
2023/01/28 09:48:03;;;;;;;;;;;;;;;-0.37;69.34;93089.06;2049404;70;20049;-72
2023/01/28 09:50:32;;;;;;;;;;;;;;;-0.71;70.43;93081.38;2051206;70;20062;-72
2023/01/28 09:53:11;;;;;;;;;;;;;;;-1.20;70.41;93086.41;2051112;70;20048;-73
2023/01/28 09:55:43;;;;;;;;;;;;;;;-0.58;69.77;93088.94;2050757;70;20050;-74
2023/01/28 09:58:14;;;;;;;;;;;;;;;-0.53;70.45;93082.56;2050024;70;20097;-73
2023/01/28 10:00:45;;;;;;;;;;;;;;;-0.37;69.10;93084.28;2050012;70;20059;-74
2023/01/28 10:03:14;;;;;;;;;;;;;;;-0.74;69.92;93081.66;2051866;70;20042;-76
2023/01/28 10:05:59;;;;;;;;;;;;;;;-0.84;69.67;93075.81;2054062;70;20116;-74
2023/01/28 10:08:26;;;;;;;;;;;;;;;-0.35;69.24;93067.16;2050532;70;20113;-75
2023/01/28 10:11:13;;;;;;;;;;;;;;;0.06;67.37;93065.88;2050906;70;20049;-78
2023/01/28 10:13:58;;;;;;;;;;;;;;;0.21;66.16;93066.06;2051059;70;20123;-79
2023/01/28 10:16:29;;;;;;;;;;;;;;;0.08;66.23;93066.81;2050747;70;20474;-74
2023/01/28 10:19:02;;;;;;;;;;;;;;;-0.66;68.15;93071.47;2054996;70;20053;-74
2023/01/28 10:21:42;;;;;;;;;;;;;;;-0.60;68.97;93064.56;2055843;70;20113;-73
2023/01/28 10:24:08;;;;;;;;;;;;;;;-0.23;68.63;93067.69;2052127;70;20070;-73
2023/01/28 10:26:35;;;;;;;;;;;;;;;0.12;68.49;93063.75;2054157;70;20049;-74
2023/01/28 10:29:10;;;;;;;;;;;;;;;0.38;67.54;93062.97;2051590;70;20058;-80
2023/01/28 10:31:40;;;;;;;;;;;;;;;-0.18;68.12;93056.53;2050944;70;20124;-76
2023/01/28 10:34:06;;;;;;;;;;;;;;;0.33;67.24;93055.53;2051037;70;20050;-78
2023/01/28 10:36:33;;;;;;;;;;;;;;;0.48;66.14;93052.91;2051244;70;20069;-77
2023/01/28 10:38:59;;;;;;;;;;;;;;;0.41;66.57;93050.78;2051226;70;20066;-74
2023/01/28 10:41:25;;;;;;;;;;;;;;;0.25;66.17;93047.84;2051169;70;20054;-78
2023/01/28 10:43:51;;;;;;;;;;;;;;;0.14;67.29;93042.56;2051093;70;20046;-79
2023/01/28 10:46:26;;;;;;;;;;;;;;;0.59;66.09;93046.38;2051275;70;20142;-74
2023/01/28 10:48:55;;;;;;;;;;;;;;;0.69;65.00;93048.16;2053413;70;20069;-73
2023/01/28 10:51:34;;;;;;;;;;;;;;;0.91;64.50;93043.38;2054916;70;20050;-77
2023/01/28 10:54:00;;;;;;;;;;;;;;;0.89;64.26;93040.41;2055025;70;20050;-75
2023/01/28 10:56:27;;;;;;;;;;;;;;;0.41;64.34;93040.47;2055102;70;20046;-77
2023/01/28 10:58:53;;;;;;;;;;;;;;;0.84;64.57;93039.25;2054286;70;20104;-77
2023/01/28 11:01:19;;;;;;;;;;;;;;;0.92;64.82;93036.56;2054939;70;20042;-74
2023/01/28 11:03:53;;;;;;;;;;;;;;;1.23;63.46;93032.75;2055109;70;20145;-76
2023/01/28 11:06:25;;;;;;;;;;;;;;;1.38;63.40;93031.41;2051656;70;20066;-75
2023/01/28 11:08:51;;;;;;;;;;;;;;;1.34;63.07;93031.75;2054921;70;20054;-78
2023/01/28 11:11:22;;;;;;;;;;;;;;;1.10;62.31;93041.16;2054975;70;20046;-76
2023/01/28 11:13:49;;;;;;;;;;;;;;;1.35;62.49;93035.25;2054472;70;20106;-77
2023/01/28 11:16:18;;;;;;;;;;;;;;;1.59;61.76;93031.38;2054940;70;20077;-77
2023/01/28 11:19:04;;;;;;;;;;;;;;;2.00;61.68;93036.78;2054934;70;20497;-77
2023/01/28 11:21:30;;;;;;;;;;;;;;;2.16;60.94;93034.84;2055017;70;20505;-77
2023/01/28 11:24:04;;;;;;;;;;;;;;;2.12;60.64;93030.94;2054955;70;20057;-77
2023/01/28 11:26:32;;;;;;;;;;;;;;;2.19;60.35;93030.97;2054821;70;20084;-73
2023/01/28 11:28:57;;;;;;;;;;;;;;;2.31;60.39;93033.44;2054191;69;20058;-79
2023/01/28 11:31:24;;;;;;;;;;;;;;;2.57;60.04;93035.19;2054389;70;20507;-74
2023/01/28 11:33:50;;;;;;;;;;;;;;;2.44;59.65;93031.28;2055005;70;20049;-77
2023/01/28 11:36:17;;;;;;;;;;;;;;;2.58;59.04;93031.13;2054843;70;20042;-74
2023/01/28 11:38:54;;;;;;;;;;;;;;;2.58;58.62;93031.88;2054933;69;20360;-74
2023/01/28 11:41:25;;;;;;;;;;;;;;;2.11;58.64;93021.09;2054964;70;20050;-73
2023/01/28 11:43:50;;;;;;;;;;;;;;;2.20;58.84;93018.59;2055055;70;20615;-73
2023/01/28 11:46:16;;;;;;;;;;;;;;;2.32;59.32;93024.53;2054363;70;20068;-79
2023/01/28 11:48:47;;;;;;;;;;;;;;;2.70;58.71;93010.78;2055036;70;20042;-75
2023/01/28 11:51:35;;;;;;;;;;;;;;;2.83;59.17;93020.25;2054931;70;20074;-73
2023/01/28 11:54:12;;;;;;;;;;;;;;;2.46;58.19;93016.81;2054925;70;20082;-77
2023/01/28 11:56:56;;;;;;;;;;;;;;;3.18;57.90;93016.59;2054947;70;20070;-73
2023/01/28 11:59:46;;;;;;;;;;;;;;;3.28;57.71;93014.75;2054801;70;20042;-74
2023/01/28 12:02:41;;;;;;;;;;;;;;;3.15;56.87;93016.97;2048230;70;20190;-78
2023/01/28 12:05:06;;;;;;;;;;;;;;;3.68;56.82;93007.88;2043716;70;20078;-76
2023/01/28 12:07:34;;;;;;;;;;;;;;;4.10;55.49;93013.00;2049245;70;20210;-78
2023/01/28 12:10:02;;;;;;;;;;;;;;;3.99;55.56;93008.56;2048359;70;20475;-78
2023/01/28 12:12:37;;;;;;;;;;;;;;;4.06;54.89;93002.22;2048204;70;20073;-77
2023/01/28 12:15:19;;;;;;;;;;;;;;;4.24;54.29;93003.09;2050388;70;20049;-77
2023/01/28 12:17:44;;;;;;;;;;;;;;;4.00;53.81;92998.91;2054808;70;20137;-78
2023/01/28 12:20:10;;;;;;;;;;;;;;;4.24;54.70;92991.94;2054802;70;20050;-78
2023/01/28 12:22:47;;;;;;;;;;;;;;;3.60;55.83;93001.56;2054770;70;20417;-79
2023/01/28 12:25:31;;;;;;;;;;;;;;;3.20;57.04;93002.88;2054895;70;20190;-78
2023/01/28 12:27:57;;;;;;;;;;;;;;;3.43;57.34;92999.34;2054733;70;20054;-73
2023/01/28 12:30:34;;;;;;;;;;;;;;;3.58;56.65;93010.50;2052542;70;20082;-79
2023/01/28 12:33:18;;;;;;;;;;;;;;;3.13;57.11;93003.63;2051509;70;20046;-77
2023/01/28 12:36:01;;;;;;;;;;;;;;;3.59;56.06;93006.41;2051649;70;20244;-73
2023/01/28 12:38:40;;;;;;;;;;;;;;;3.95;56.82;93006.16;2051468;70;20438;-79
2023/01/28 12:41:14;;;;;;;;;;;;;;;4.25;55.31;93002.53;2051715;70;20046;-78
2023/01/28 12:43:51;;;;;;;;;;;;;;;4.12;55.82;93005.53;2051594;70;20054;-78
2023/01/28 12:46:20;;;;;;;;;;;;;;;4.06;53.91;93010.59;2053915;70;20046;-77
2023/01/28 12:48:49;;;;;;;;;;;;;;;2.69;56.42;93005.75;2054427;70;20124;-77
2023/01/28 12:51:18;;;;;;;;;;;;;;;3.38;55.64;93011.41;2054752;70;20079;-77
2023/01/28 12:53:54;;;;;;;;;;;;;;;3.83;55.31;93000.22;2054932;70;20053;-76
2023/01/28 12:56:34;;;;;;;;;;;;;;;3.34;55.10;93003.44;2054748;70;20479;-76
2023/01/28 12:59:15;;;;;;;;;;;;;;;3.65;55.46;92998.59;2054612;69;20223;-76
2023/01/28 13:01:43;;;;;;;;;;;;;;;3.73;54.67;92999.31;2051215;70;20040;-77
2023/01/28 13:04:29;;;;;;;;;;;;;;;3.94;54.57;93001.91;2048209;70;20426;-78
2023/01/28 13:06:57;;;;;;;;;;;;;;;3.91;54.60;92999.47;2051334;70;20106;-74
2023/01/28 13:09:24;;;;;;;;;;;;;;;3.79;54.60;92987.97;2051559;70;20050;-78
2023/01/28 13:11:50;;;;;;;;;;;;;;;3.64;54.46;92991.53;2051303;70;20047;-75
2023/01/28 13:14:16;;;;;;;;;;;;;;;4.19;54.58;92985.28;2051176;70;20162;-76
2023/01/28 13:16:42;;;;;;;;;;;;;;;3.85;54.17;92985.75;2054756;70;20054;-78
2023/01/28 13:19:28;;;;;;;;;;;;;;;3.11;55.26;92986.72;2052710;70;20069;-77
2023/01/28 13:21:53;;;;;;;;;;;;;;;2.48;56.09;92987.19;2053823;70;20050;-76
2023/01/28 13:24:20;;;;;;;;;;;;;;;2.54;56.95;93000.91;2054896;70;20053;-77
2023/01/28 13:26:55;;;;;;;;;;;;;;;2.96;55.86;92997.84;2054642;70;20054;-77
2023/01/28 13:29:23;;;;;;;;;;;;;;;3.07;55.38;93005.84;2051157;70;20123;-77
2023/01/28 13:31:50;;;;;;;;;;;;;;;2.66;55.22;93002.06;2048084;70;20073;-75